sensor_id;sensor_type;location;lat;lon;timestamp;P1;durP1;ratioP1;P2;durP2;ratioP2
16640;SDS011;8434;47.990;7.880;2023-12-04T00:01:16;3.67;;;1.57;;
16640;SDS011;8434;47.990;7.880;2023-12-04T00:04:02;1.83;;;1.20;;
16640;SDS011;8434;47.990;7.880;2023-12-04T00:06:47;2.30;;;1.60;;
16640;SDS011;8434;47.990;7.880;2023-12-04T00:09:33;2.53;;;2.00;;
16640;SDS011;8434;47.990;7.880;2023-12-04T00:12:18;3.27;;;1.80;;
16640;SDS011;8434;47.990;7.880;2023-12-04T00:15:04;2.60;;;1.90;;
16640;SDS011;8434;47.990;7.880;2023-12-04T00:17:51;1.90;;;1.40;;
16640;SDS011;8434;47.990;7.880;2023-12-04T00:20:36;1.57;;;1.17;;
16640;SDS011;8434;47.990;7.880;2023-12-04T00:23:22;1.57;;;1.20;;
16640;SDS011;8434;47.990;7.880;2023-12-04T00:26:07;2.03;;;1.43;;
16640;SDS011;8434;47.990;7.880;2023-12-04T00:28:52;2.20;;;1.50;;
16640;SDS011;8434;47.990;7.880;2023-12-04T00:31:38;3.83;;;1.77;;
16640;SDS011;8434;47.990;7.880;2023-12-04T00:34:25;3.23;;;1.97;;
16640;SDS011;8434;47.990;7.880;2023-12-04T00:37:10;2.70;;;1.87;;
16640;SDS011;8434;47.990;7.880;2023-12-04T00:39:55;2.10;;;1.90;;
16640;SDS011;8434;47.990;7.880;2023-12-04T00:42:41;2.33;;;1.60;;
16640;SDS011;8434;47.990;7.880;2023-12-04T00:45:26;3.23;;;1.70;;
16640;SDS011;8434;47.990;7.880;2023-12-04T00:48:12;1.90;;;1.50;;
16640;SDS011;8434;47.990;7.880;2023-12-04T00:50:59;1.73;;;1.20;;
16640;SDS011;8434;47.990;7.880;2023-12-04T00:53:44;2.23;;;1.57;;
16640;SDS011;8434;47.990;7.880;2023-12-04T00:56:30;1.77;;;1.43;;
16640;SDS011;8434;47.990;7.880;2023-12-04T00:59:15;2.23;;;1.57;;
16640;SDS011;8434;47.990;7.880;2023-12-04T01:02:01;1.63;;;1.17;;
16640;SDS011;8434;47.990;7.880;2023-12-04T01:04:46;1.63;;;1.20;;
16640;SDS011;8434;47.990;7.880;2023-12-04T01:07:33;3.57;;;1.40;;
16640;SDS011;8434;47.990;7.880;2023-12-04T01:10:18;2.53;;;1.57;;
16640;SDS011;8434;47.990;7.880;2023-12-04T01:13:04;1.47;;;1.00;;
16640;SDS011;8434;47.990;7.880;2023-12-04T01:15:49;1.47;;;1.20;;
16640;SDS011;8434;47.990;7.880;2023-12-04T01:18:35;2.13;;;1.40;;
16640;SDS011;8434;47.990;7.880;2023-12-04T01:21:20;1.53;;;1.23;;
16640;SDS011;8434;47.990;7.880;2023-12-04T01:24:07;1.27;;;1.17;;
16640;SDS011;8434;47.990;7.880;2023-12-04T01:26:53;1.80;;;1.70;;
16640;SDS011;8434;47.990;7.880;2023-12-04T01:29:38;2.63;;;1.50;;
16640;SDS011;8434;47.990;7.880;2023-12-04T01:32:23;2.37;;;1.27;;
16640;SDS011;8434;47.990;7.880;2023-12-04T01:35:09;2.33;;;1.47;;
16640;SDS011;8434;47.990;7.880;2023-12-04T01:37:55;1.50;;;1.17;;
16640;SDS011;8434;47.990;7.880;2023-12-04T01:40:41;1.47;;;1.33;;
16640;SDS011;8434;47.990;7.880;2023-12-04T01:43:27;2.03;;;1.37;;
16640;SDS011;8434;47.990;7.880;2023-12-04T01:46:13;2.13;;;1.50;;
16640;SDS011;8434;47.990;7.880;2023-12-04T01:49:00;1.90;;;1.40;;
16640;SDS011;8434;47.990;7.880;2023-12-04T01:51:47;2.03;;;1.13;;
16640;SDS011;8434;47.990;7.880;2023-12-04T01:54:32;2.77;;;1.50;;
16640;SDS011;8434;47.990;7.880;2023-12-04T01:57:19;1.73;;;1.27;;
16640;SDS011;8434;47.990;7.880;2023-12-04T02:00:05;2.20;;;1.17;;
16640;SDS011;8434;47.990;7.880;2023-12-04T02:02:55;2.07;;;1.37;;
16640;SDS011;8434;47.990;7.880;2023-12-04T02:05:43;2.10;;;1.20;;
16640;SDS011;8434;47.990;7.880;2023-12-04T02:08:29;1.43;;;1.27;;
16640;SDS011;8434;47.990;7.880;2023-12-04T02:11:14;2.23;;;1.57;;
16640;SDS011;8434;47.990;7.880;2023-12-04T02:14:01;3.63;;;1.90;;
16640;SDS011;8434;47.990;7.880;2023-12-04T02:16:47;6.03;;;2.97;;
16640;SDS011;8434;47.990;7.880;2023-12-04T02:19:32;3.57;;;2.00;;
16640;SDS011;8434;47.990;7.880;2023-12-04T02:22:18;4.60;;;2.20;;
16640;SDS011;8434;47.990;7.880;2023-12-04T02:25:05;2.73;;;1.80;;
16640;SDS011;8434;47.990;7.880;2023-12-04T02:27:52;3.13;;;1.83;;
16640;SDS011;8434;47.990;7.880;2023-12-04T02:30:38;2.73;;;2.20;;
16640;SDS011;8434;47.990;7.880;2023-12-04T02:33:26;3.30;;;2.30;;
16640;SDS011;8434;47.990;7.880;2023-12-04T02:36:12;8.00;;;4.43;;
16640;SDS011;8434;47.990;7.880;2023-12-04T02:38:58;7.40;;;4.17;;
16640;SDS011;8434;47.990;7.880;2023-12-04T02:41:44;9.77;;;5.37;;
16640;SDS011;8434;47.990;7.880;2023-12-04T02:44:30;8.40;;;3.90;;
16640;SDS011;8434;47.990;7.880;2023-12-04T02:47:15;10.37;;;5.77;;
16640;SDS011;8434;47.990;7.880;2023-12-04T02:50:01;10.27;;;5.00;;
16640;SDS011;8434;47.990;7.880;2023-12-04T02:52:46;9.87;;;5.20;;
16640;SDS011;8434;47.990;7.880;2023-12-04T02:55:32;11.90;;;6.53;;
16640;SDS011;8434;47.990;7.880;2023-12-04T02:58:18;9.57;;;5.53;;
16640;SDS011;8434;47.990;7.880;2023-12-04T03:01:04;11.23;;;5.47;;
16640;SDS011;8434;47.990;7.880;2023-12-04T03:03:50;10.03;;;5.47;;
16640;SDS011;8434;47.990;7.880;2023-12-04T03:06:35;7.67;;;4.40;;
16640;SDS011;8434;47.990;7.880;2023-12-04T03:09:21;6.57;;;4.27;;
16640;SDS011;8434;47.990;7.880;2023-12-04T03:12:06;10.07;;;4.87;;
16640;SDS011;8434;47.990;7.880;2023-12-04T03:14:53;9.40;;;4.97;;
16640;SDS011;8434;47.990;7.880;2023-12-04T03:17:38;8.67;;;5.63;;
16640;SDS011;8434;47.990;7.880;2023-12-04T03:20:24;7.97;;;4.77;;
16640;SDS011;8434;47.990;7.880;2023-12-04T03:23:09;11.27;;;6.03;;
16640;SDS011;8434;47.990;7.880;2023-12-04T03:25:57;9.43;;;5.70;;
16640;SDS011;8434;47.990;7.880;2023-12-04T03:28:42;9.57;;;5.20;;
16640;SDS011;8434;47.990;7.880;2023-12-04T03:31:29;12.20;;;6.23;;
16640;SDS011;8434;47.990;7.880;2023-12-04T03:34:15;14.13;;;6.70;;
16640;SDS011;8434;47.990;7.880;2023-12-04T03:37:00;13.73;;;7.97;;
16640;SDS011;8434;47.990;7.880;2023-12-04T03:39:46;10.37;;;6.03;;
16640;SDS011;8434;47.990;7.880;2023-12-04T03:42:31;13.47;;;7.50;;
16640;SDS011;8434;47.990;7.880;2023-12-04T03:45:17;11.70;;;7.07;;
16640;SDS011;8434;47.990;7.880;2023-12-04T03:48:04;10.00;;;6.20;;
16640;SDS011;8434;47.990;7.880;2023-12-04T03:50:49;8.60;;;4.70;;
16640;SDS011;8434;47.990;7.880;2023-12-04T03:53:35;11.30;;;6.43;;
16640;SDS011;8434;47.990;7.880;2023-12-04T03:56:20;8.97;;;5.43;;
16640;SDS011;8434;47.990;7.880;2023-12-04T03:59:06;9.70;;;6.37;;
16640;SDS011;8434;47.990;7.880;2023-12-04T04:01:51;9.90;;;5.27;;
16640;SDS011;8434;47.990;7.880;2023-12-04T04:04:38;8.77;;;6.30;;
16640;SDS011;8434;47.990;7.880;2023-12-04T04:07:23;6.77;;;4.37;;
16640;SDS011;8434;47.990;7.880;2023-12-04T04:10:09;6.37;;;4.10;;
16640;SDS011;8434;47.990;7.880;2023-12-04T04:12:54;8.73;;;4.87;;
16640;SDS011;8434;47.990;7.880;2023-12-04T04:15:40;7.63;;;4.77;;
16640;SDS011;8434;47.990;7.880;2023-12-04T04:18:25;9.27;;;5.43;;
16640;SDS011;8434;47.990;7.880;2023-12-04T04:21:12;7.43;;;3.90;;
16640;SDS011;8434;47.990;7.880;2023-12-04T04:23:57;6.17;;;3.87;;
16640;SDS011;8434;47.990;7.880;2023-12-04T04:26:43;7.87;;;3.63;;
16640;SDS011;8434;47.990;7.880;2023-12-04T04:29:28;3.87;;;2.33;;
16640;SDS011;8434;47.990;7.880;2023-12-04T04:32:14;4.23;;;2.53;;
16640;SDS011;8434;47.990;7.880;2023-12-04T04:34:59;3.93;;;2.70;;
16640;SDS011;8434;47.990;7.880;2023-12-04T04:37:46;3.17;;;2.23;;
16640;SDS011;8434;47.990;7.880;2023-12-04T04:40:32;3.87;;;2.07;;
16640;SDS011;8434;47.990;7.880;2023-12-04T04:43:17;2.53;;;1.73;;
16640;SDS011;8434;47.990;7.880;2023-12-04T04:46:03;2.70;;;1.97;;
16640;SDS011;8434;47.990;7.880;2023-12-04T04:48:48;2.17;;;1.70;;
16640;SDS011;8434;47.990;7.880;2023-12-04T04:51:34;2.77;;;1.90;;
16640;SDS011;8434;47.990;7.880;2023-12-04T04:54:20;1.80;;;1.70;;
16640;SDS011;8434;47.990;7.880;2023-12-04T04:57:06;1.40;;;1.20;;
16640;SDS011;8434;47.990;7.880;2023-12-04T04:59:52;2.00;;;1.30;;
16640;SDS011;8434;47.990;7.880;2023-12-04T05:02:37;1.77;;;1.37;;
16640;SDS011;8434;47.990;7.880;2023-12-04T05:05:23;1.40;;;1.00;;
16640;SDS011;8434;47.990;7.880;2023-12-04T05:08:08;1.90;;;1.33;;
16640;SDS011;8434;47.990;7.880;2023-12-04T05:10:55;1.47;;;1.27;;
16640;SDS011;8434;47.990;7.880;2023-12-04T05:13:40;2.13;;;1.40;;
16640;SDS011;8434;47.990;7.880;2023-12-04T05:16:25;1.77;;;1.30;;
16640;SDS011;8434;47.990;7.880;2023-12-04T05:19:11;1.90;;;1.37;;
16640;SDS011;8434;47.990;7.880;2023-12-04T05:21:56;3.63;;;1.30;;
16640;SDS011;8434;47.990;7.880;2023-12-04T05:24:42;2.00;;;1.90;;
16640;SDS011;8434;47.990;7.880;2023-12-04T05:27:29;1.87;;;1.13;;
16640;SDS011;8434;47.990;7.880;2023-12-04T05:30:14;1.47;;;1.23;;
16640;SDS011;8434;47.990;7.880;2023-12-04T05:33:00;1.90;;;1.27;;
16640;SDS011;8434;47.990;7.880;2023-12-04T05:35:47;1.43;;;1.27;;
16640;SDS011;8434;47.990;7.880;2023-12-04T05:38:32;1.67;;;1.13;;
16640;SDS011;8434;47.990;7.880;2023-12-04T05:41:17;1.90;;;1.10;;
16640;SDS011;8434;47.990;7.880;2023-12-04T05:44:04;2.00;;;1.30;;
16640;SDS011;8434;47.990;7.880;2023-12-04T05:46:50;4.13;;;1.40;;
16640;SDS011;8434;47.990;7.880;2023-12-04T05:49:36;2.40;;;1.60;;
16640;SDS011;8434;47.990;7.880;2023-12-04T05:52:21;2.87;;;1.60;;
16640;SDS011;8434;47.990;7.880;2023-12-04T05:55:07;1.37;;;1.27;;
16640;SDS011;8434;47.990;7.880;2023-12-04T05:57:53;1.17;;;0.90;;
16640;SDS011;8434;47.990;7.880;2023-12-04T06:00:40;2.60;;;1.80;;
16640;SDS011;8434;47.990;7.880;2023-12-04T06:03:25;1.90;;;1.47;;
16640;SDS011;8434;47.990;7.880;2023-12-04T06:06:11;1.90;;;1.27;;
16640;SDS011;8434;47.990;7.880;2023-12-04T06:08:56;2.63;;;1.60;;
16640;SDS011;8434;47.990;7.880;2023-12-04T06:11:41;2.70;;;1.60;;
16640;SDS011;8434;47.990;7.880;2023-12-04T06:14:27;3.67;;;1.50;;
16640;SDS011;8434;47.990;7.880;2023-12-04T06:17:14;7.10;;;3.37;;
16640;SDS011;8434;47.990;7.880;2023-12-04T06:19:59;6.97;;;4.77;;
16640;SDS011;8434;47.990;7.880;2023-12-04T06:22:45;11.03;;;6.27;;
16640;SDS011;8434;47.990;7.880;2023-12-04T06:25:30;15.07;;;6.93;;
16640;SDS011;8434;47.990;7.880;2023-12-04T06:28:16;17.50;;;8.43;;
16640;SDS011;8434;47.990;7.880;2023-12-04T06:31:01;15.63;;;8.13;;
16640;SDS011;8434;47.990;7.880;2023-12-04T06:33:49;14.17;;;8.30;;
16640;SDS011;8434;47.990;7.880;2023-12-04T06:36:35;17.77;;;8.40;;
16640;SDS011;8434;47.990;7.880;2023-12-04T06:39:22;14.97;;;7.60;;
16640;SDS011;8434;47.990;7.880;2023-12-04T06:42:08;14.40;;;7.97;;
16640;SDS011;8434;47.990;7.880;2023-12-04T06:44:53;12.00;;;8.27;;
16640;SDS011;8434;47.990;7.880;2023-12-04T06:47:39;19.43;;;10.93;;
16640;SDS011;8434;47.990;7.880;2023-12-04T06:50:27;14.00;;;7.67;;
16640;SDS011;8434;47.990;7.880;2023-12-04T06:53:12;16.57;;;9.77;;
16640;SDS011;8434;47.990;7.880;2023-12-04T06:55:57;17.63;;;9.27;;
16640;SDS011;8434;47.990;7.880;2023-12-04T06:58:43;19.77;;;10.53;;
16640;SDS011;8434;47.990;7.880;2023-12-04T07:01:28;20.27;;;11.13;;
16640;SDS011;8434;47.990;7.880;2023-12-04T07:04:14;21.00;;;10.90;;
16640;SDS011;8434;47.990;7.880;2023-12-04T07:07:06;19.07;;;11.03;;
16640;SDS011;8434;47.990;7.880;2023-12-04T07:09:51;17.93;;;9.40;;
16640;SDS011;8434;47.990;7.880;2023-12-04T07:12:36;19.53;;;11.00;;
16640;SDS011;8434;47.990;7.880;2023-12-04T07:15:22;19.77;;;10.90;;
16640;SDS011;8434;47.990;7.880;2023-12-04T07:18:07;14.73;;;9.67;;
16640;SDS011;8434;47.990;7.880;2023-12-04T07:20:53;13.93;;;8.60;;
16640;SDS011;8434;47.990;7.880;2023-12-04T07:23:40;13.40;;;8.10;;
16640;SDS011;8434;47.990;7.880;2023-12-04T07:26:25;16.20;;;8.60;;
16640;SDS011;8434;47.990;7.880;2023-12-04T07:29:11;11.03;;;6.23;;
16640;SDS011;8434;47.990;7.880;2023-12-04T07:31:56;6.90;;;4.60;;
16640;SDS011;8434;47.990;7.880;2023-12-04T07:34:42;7.17;;;3.70;;
16640;SDS011;8434;47.990;7.880;2023-12-04T07:37:28;4.97;;;3.23;;
16640;SDS011;8434;47.990;7.880;2023-12-04T07:40:15;4.63;;;3.27;;
16640;SDS011;8434;47.990;7.880;2023-12-04T07:43:01;5.10;;;3.17;;
16640;SDS011;8434;47.990;7.880;2023-12-04T07:45:47;4.57;;;3.20;;
16640;SDS011;8434;47.990;7.880;2023-12-04T07:48:32;3.27;;;2.70;;
16640;SDS011;8434;47.990;7.880;2023-12-04T07:51:18;3.90;;;2.37;;
16640;SDS011;8434;47.990;7.880;2023-12-04T07:54:04;3.97;;;2.80;;
16640;SDS011;8434;47.990;7.880;2023-12-04T07:56:51;3.40;;;2.17;;
16640;SDS011;8434;47.990;7.880;2023-12-04T07:59:36;3.00;;;2.27;;
16640;SDS011;8434;47.990;7.880;2023-12-04T08:02:22;2.90;;;2.30;;
16640;SDS011;8434;47.990;7.880;2023-12-04T08:05:07;2.90;;;2.20;;
16640;SDS011;8434;47.990;7.880;2023-12-04T08:07:52;4.07;;;2.40;;
16640;SDS011;8434;47.990;7.880;2023-12-04T08:10:38;4.27;;;2.60;;
16640;SDS011;8434;47.990;7.880;2023-12-04T08:13:25;3.73;;;2.43;;
16640;SDS011;8434;47.990;7.880;2023-12-04T08:16:14;6.03;;;3.73;;
16640;SDS011;8434;47.990;7.880;2023-12-04T08:19:00;7.67;;;4.93;;
16640;SDS011;8434;47.990;7.880;2023-12-04T08:21:45;15.10;;;7.90;;
16640;SDS011;8434;47.990;7.880;2023-12-04T08:24:30;13.87;;;7.97;;
16640;SDS011;8434;47.990;7.880;2023-12-04T08:27:16;15.10;;;7.97;;
16640;SDS011;8434;47.990;7.880;2023-12-04T08:30:03;16.13;;;9.53;;
16640;SDS011;8434;47.990;7.880;2023-12-04T08:32:49;16.77;;;8.90;;
16640;SDS011;8434;47.990;7.880;2023-12-04T08:35:34;15.13;;;9.37;;
16640;SDS011;8434;47.990;7.880;2023-12-04T08:38:20;16.97;;;9.77;;
16640;SDS011;8434;47.990;7.880;2023-12-04T08:41:06;14.67;;;8.27;;
16640;SDS011;8434;47.990;7.880;2023-12-04T08:43:51;15.23;;;8.13;;
16640;SDS011;8434;47.990;7.880;2023-12-04T08:46:38;9.53;;;6.00;;
16640;SDS011;8434;47.990;7.880;2023-12-04T08:49:23;4.27;;;2.73;;
16640;SDS011;8434;47.990;7.880;2023-12-04T08:52:09;5.13;;;3.27;;
16640;SDS011;8434;47.990;7.880;2023-12-04T08:54:54;4.13;;;2.60;;
16640;SDS011;8434;47.990;7.880;2023-12-04T08:57:40;4.50;;;2.80;;
16640;SDS011;8434;47.990;7.880;2023-12-04T09:00:25;3.37;;;2.40;;
16640;SDS011;8434;47.990;7.880;2023-12-04T09:03:12;4.57;;;2.70;;
16640;SDS011;8434;47.990;7.880;2023-12-04T09:05:57;5.57;;;3.07;;
16640;SDS011;8434;47.990;7.880;2023-12-04T09:08:43;5.17;;;3.33;;
16640;SDS011;8434;47.990;7.880;2023-12-04T09:11:31;4.27;;;2.50;;
16640;SDS011;8434;47.990;7.880;2023-12-04T09:14:17;4.00;;;2.77;;
16640;SDS011;8434;47.990;7.880;2023-12-04T09:17:02;4.03;;;2.50;;
16640;SDS011;8434;47.990;7.880;2023-12-04T09:19:49;3.33;;;2.20;;
16640;SDS011;8434;47.990;7.880;2023-12-04T09:22:35;3.93;;;2.30;;
16640;SDS011;8434;47.990;7.880;2023-12-04T09:25:22;2.33;;;1.97;;
16640;SDS011;8434;47.990;7.880;2023-12-04T09:28:08;3.47;;;2.17;;
16640;SDS011;8434;47.990;7.880;2023-12-04T09:30:53;3.97;;;2.20;;
16640;SDS011;8434;47.990;7.880;2023-12-04T09:33:39;5.30;;;2.60;;
16640;SDS011;8434;47.990;7.880;2023-12-04T09:36:26;2.47;;;2.20;;
16640;SDS011;8434;47.990;7.880;2023-12-04T09:39:11;3.43;;;2.30;;
16640;SDS011;8434;47.990;7.880;2023-12-04T09:41:57;2.80;;;1.87;;
16640;SDS011;8434;47.990;7.880;2023-12-04T09:44:43;2.13;;;1.93;;
16640;SDS011;8434;47.990;7.880;2023-12-04T09:47:29;1.77;;;1.67;;
16640;SDS011;8434;47.990;7.880;2023-12-04T09:50:15;4.10;;;2.50;;
16640;SDS011;8434;47.990;7.880;2023-12-04T09:53:02;2.97;;;2.43;;
16640;SDS011;8434;47.990;7.880;2023-12-04T09:55:48;3.90;;;2.77;;
16640;SDS011;8434;47.990;7.880;2023-12-04T09:58:34;5.20;;;3.00;;
16640;SDS011;8434;47.990;7.880;2023-12-04T10:01:24;6.10;;;2.93;;
16640;SDS011;8434;47.990;7.880;2023-12-04T10:04:10;4.03;;;2.70;;
16640;SDS011;8434;47.990;7.880;2023-12-04T10:06:56;4.00;;;2.77;;
16640;SDS011;8434;47.990;7.880;2023-12-04T10:09:43;5.17;;;2.33;;
16640;SDS011;8434;47.990;7.880;2023-12-04T10:12:28;2.67;;;2.20;;
16640;SDS011;8434;47.990;7.880;2023-12-04T10:15:14;3.17;;;1.90;;
16640;SDS011;8434;47.990;7.880;2023-12-04T10:18:00;4.13;;;2.97;;
16640;SDS011;8434;47.990;7.880;2023-12-04T10:20:51;4.10;;;2.43;;
16640;SDS011;8434;47.990;7.880;2023-12-04T10:23:37;7.27;;;4.43;;
16640;SDS011;8434;47.990;7.880;2023-12-04T10:26:24;5.07;;;2.20;;
16640;SDS011;8434;47.990;7.880;2023-12-04T10:29:09;2.93;;;2.17;;
16640;SDS011;8434;47.990;7.880;2023-12-04T10:31:55;2.93;;;2.17;;
16640;SDS011;8434;47.990;7.880;2023-12-04T10:34:41;5.93;;;2.60;;
16640;SDS011;8434;47.990;7.880;2023-12-04T10:37:27;3.77;;;2.30;;
16640;SDS011;8434;47.990;7.880;2023-12-04T10:40:14;2.47;;;2.23;;
16640;SDS011;8434;47.990;7.880;2023-12-04T10:43:14;4.50;;;3.90;;
16640;SDS011;8434;47.990;7.880;2023-12-04T10:46:00;5.83;;;3.60;;
16640;SDS011;8434;47.990;7.880;2023-12-04T10:48:45;7.10;;;4.00;;
16640;SDS011;8434;47.990;7.880;2023-12-04T10:51:32;8.10;;;3.87;;
16640;SDS011;8434;47.990;7.880;2023-12-04T10:54:18;6.50;;;3.10;;
16640;SDS011;8434;47.990;7.880;2023-12-04T10:57:04;3.83;;;2.40;;
16640;SDS011;8434;47.990;7.880;2023-12-04T10:59:51;3.03;;;2.27;;
16640;SDS011;8434;47.990;7.880;2023-12-04T11:02:39;2.03;;;1.90;;
16640;SDS011;8434;47.990;7.880;2023-12-04T11:05:30;3.37;;;2.37;;
16640;SDS011;8434;47.990;7.880;2023-12-04T11:08:17;2.80;;;1.93;;
16640;SDS011;8434;47.990;7.880;2023-12-04T11:11:04;3.03;;;2.17;;
16640;SDS011;8434;47.990;7.880;2023-12-04T11:13:52;4.50;;;1.90;;
16640;SDS011;8434;47.990;7.880;2023-12-04T11:16:41;5.43;;;2.97;;
16640;SDS011;8434;47.990;7.880;2023-12-04T11:19:30;9.83;;;4.13;;
16640;SDS011;8434;47.990;7.880;2023-12-04T11:22:17;4.20;;;3.17;;
16640;SDS011;8434;47.990;7.880;2023-12-04T11:25:04;4.47;;;3.23;;
16640;SDS011;8434;47.990;7.880;2023-12-04T11:27:51;5.40;;;4.10;;
16640;SDS011;8434;47.990;7.880;2023-12-04T11:30:37;6.73;;;3.57;;
16640;SDS011;8434;47.990;7.880;2023-12-04T11:33:24;5.70;;;3.90;;
16640;SDS011;8434;47.990;7.880;2023-12-04T11:36:10;4.90;;;3.97;;
16640;SDS011;8434;47.990;7.880;2023-12-04T11:38:56;5.97;;;2.27;;
16640;SDS011;8434;47.990;7.880;2023-12-04T11:41:41;4.13;;;2.20;;
16640;SDS011;8434;47.990;7.880;2023-12-04T11:44:27;3.10;;;1.63;;
16640;SDS011;8434;47.990;7.880;2023-12-04T11:47:12;1.00;;;0.80;;
16640;SDS011;8434;47.990;7.880;2023-12-04T11:49:59;0.97;;;0.90;;
16640;SDS011;8434;47.990;7.880;2023-12-04T11:52:45;1.13;;;0.90;;
16640;SDS011;8434;47.990;7.880;2023-12-04T11:55:30;1.37;;;1.00;;
16640;SDS011;8434;47.990;7.880;2023-12-04T11:58:20;0.97;;;0.70;;
16640;SDS011;8434;47.990;7.880;2023-12-04T12:01:06;0.77;;;0.67;;
16640;SDS011;8434;47.990;7.880;2023-12-04T12:03:52;1.80;;;0.80;;
16640;SDS011;8434;47.990;7.880;2023-12-04T12:06:39;0.87;;;0.87;;
16640;SDS011;8434;47.990;7.880;2023-12-04T12:09:25;3.47;;;1.60;;
16640;SDS011;8434;47.990;7.880;2023-12-04T12:12:10;0.70;;;0.60;;
16640;SDS011;8434;47.990;7.880;2023-12-04T12:14:55;1.13;;;0.90;;
16640;SDS011;8434;47.990;7.880;2023-12-04T12:17:41;1.33;;;0.80;;
16640;SDS011;8434;47.990;7.880;2023-12-04T12:20:26;3.80;;;1.10;;
16640;SDS011;8434;47.990;7.880;2023-12-04T12:23:13;0.83;;;0.60;;
16640;SDS011;8434;47.990;7.880;2023-12-04T12:25:59;2.03;;;0.90;;
16640;SDS011;8434;47.990;7.880;2023-12-04T12:28:45;3.50;;;1.77;;
16640;SDS011;8434;47.990;7.880;2023-12-04T12:31:31;1.23;;;0.90;;
16640;SDS011;8434;47.990;7.880;2023-12-04T12:34:16;1.53;;;1.30;;
16640;SDS011;8434;47.990;7.880;2023-12-04T12:37:02;2.23;;;1.00;;
16640;SDS011;8434;47.990;7.880;2023-12-04T12:39:50;1.77;;;1.10;;
16640;SDS011;8434;47.990;7.880;2023-12-04T12:42:36;1.60;;;0.90;;
16640;SDS011;8434;47.990;7.880;2023-12-04T12:45:25;1.03;;;0.90;;
16640;SDS011;8434;47.990;7.880;2023-12-04T12:48:12;1.30;;;1.10;;
16640;SDS011;8434;47.990;7.880;2023-12-04T12:50:57;1.70;;;1.40;;
16640;SDS011;8434;47.990;7.880;2023-12-04T12:53:43;4.47;;;1.30;;
16640;SDS011;8434;47.990;7.880;2023-12-04T12:56:30;1.03;;;0.90;;
16640;SDS011;8434;47.990;7.880;2023-12-04T12:59:15;3.20;;;1.97;;
16640;SDS011;8434;47.990;7.880;2023-12-04T13:02:01;4.23;;;3.30;;
16640;SDS011;8434;47.990;7.880;2023-12-04T13:04:49;4.17;;;2.77;;
16640;SDS011;8434;47.990;7.880;2023-12-04T13:07:35;4.70;;;2.97;;
16640;SDS011;8434;47.990;7.880;2023-12-04T13:10:21;3.17;;;1.70;;
16640;SDS011;8434;47.990;7.880;2023-12-04T13:13:10;4.43;;;3.20;;
16640;SDS011;8434;47.990;7.880;2023-12-04T13:15:56;6.30;;;3.87;;
16640;SDS011;8434;47.990;7.880;2023-12-04T13:18:41;5.40;;;2.90;;
16640;SDS011;8434;47.990;7.880;2023-12-04T13:21:26;4.07;;;2.30;;
16640;SDS011;8434;47.990;7.880;2023-12-04T13:24:12;4.87;;;2.90;;
16640;SDS011;8434;47.990;7.880;2023-12-04T13:26:57;2.00;;;1.40;;
16640;SDS011;8434;47.990;7.880;2023-12-04T13:29:44;3.37;;;2.30;;
16640;SDS011;8434;47.990;7.880;2023-12-04T13:32:34;2.70;;;1.90;;
16640;SDS011;8434;47.990;7.880;2023-12-04T13:35:19;4.77;;;2.70;;
16640;SDS011;8434;47.990;7.880;2023-12-04T13:38:04;4.27;;;2.83;;
16640;SDS011;8434;47.990;7.880;2023-12-04T13:40:56;5.50;;;2.30;;
16640;SDS011;8434;47.990;7.880;2023-12-04T13:44:02;2.63;;;1.87;;
16640;SDS011;8434;47.990;7.880;2023-12-04T13:46:49;5.67;;;2.17;;
16640;SDS011;8434;47.990;7.880;2023-12-04T13:49:35;3.70;;;2.07;;
16640;SDS011;8434;47.990;7.880;2023-12-04T13:52:21;2.40;;;1.20;;
16640;SDS011;8434;47.990;7.880;2023-12-04T13:55:08;2.10;;;1.40;;
16640;SDS011;8434;47.990;7.880;2023-12-04T13:57:59;1.73;;;0.70;;
16640;SDS011;8434;47.990;7.880;2023-12-04T14:00:54;1.00;;;0.90;;
16640;SDS011;8434;47.990;7.880;2023-12-04T14:03:41;2.50;;;1.00;;
16640;SDS011;8434;47.990;7.880;2023-12-04T14:06:27;1.97;;;1.73;;
16640;SDS011;8434;47.990;7.880;2023-12-04T14:09:12;4.10;;;2.43;;
16640;SDS011;8434;47.990;7.880;2023-12-04T14:12:00;2.07;;;1.53;;
16640;SDS011;8434;47.990;7.880;2023-12-04T14:14:48;8.00;;;4.43;;
16640;SDS011;8434;47.990;7.880;2023-12-04T14:17:34;6.37;;;4.13;;
16640;SDS011;8434;47.990;7.880;2023-12-04T14:20:21;6.00;;;3.90;;
16640;SDS011;8434;47.990;7.880;2023-12-04T14:23:06;4.83;;;2.93;;
16640;SDS011;8434;47.990;7.880;2023-12-04T14:25:52;3.53;;;2.53;;
16640;SDS011;8434;47.990;7.880;2023-12-04T14:28:38;3.77;;;2.60;;
16640;SDS011;8434;47.990;7.880;2023-12-04T14:31:24;5.77;;;3.33;;
16640;SDS011;8434;47.990;7.880;2023-12-04T14:34:09;1.10;;;0.90;;
16640;SDS011;8434;47.990;7.880;2023-12-04T14:36:56;3.23;;;2.07;;
16640;SDS011;8434;47.990;7.880;2023-12-04T14:39:42;3.33;;;1.60;;
16640;SDS011;8434;47.990;7.880;2023-12-04T14:42:27;1.90;;;1.60;;
16640;SDS011;8434;47.990;7.880;2023-12-04T14:45:13;1.27;;;1.07;;
16640;SDS011;8434;47.990;7.880;2023-12-04T14:48:00;3.43;;;2.30;;
16640;SDS011;8434;47.990;7.880;2023-12-04T14:50:48;1.50;;;1.30;;
16640;SDS011;8434;47.990;7.880;2023-12-04T14:53:36;0.70;;;0.70;;
16640;SDS011;8434;47.990;7.880;2023-12-04T14:56:28;1.20;;;0.80;;
16640;SDS011;8434;47.990;7.880;2023-12-04T14:59:46;0.60;;;0.50;;
16640;SDS011;8434;47.990;7.880;2023-12-04T15:03:05;0.47;;;0.40;;
16640;SDS011;8434;47.990;7.880;2023-12-04T15:06:19;1.07;;;0.67;;
16640;SDS011;8434;47.990;7.880;2023-12-04T15:09:28;1.27;;;0.70;;
16640;SDS011;8434;47.990;7.880;2023-12-04T15:12:54;1.13;;;0.70;;
16640;SDS011;8434;47.990;7.880;2023-12-04T15:16:06;1.27;;;0.73;;
16640;SDS011;8434;47.990;7.880;2023-12-04T15:19:10;1.20;;;0.77;;
16640;SDS011;8434;47.990;7.880;2023-12-04T15:22:12;1.43;;;0.87;;
16640;SDS011;8434;47.990;7.880;2023-12-04T15:24:59;2.47;;;1.00;;
16640;SDS011;8434;47.990;7.880;2023-12-04T15:27:43;2.90;;;1.00;;
16640;SDS011;8434;47.990;7.880;2023-12-04T15:30:29;2.27;;;1.60;;
16640;SDS011;8434;47.990;7.880;2023-12-04T15:33:13;3.50;;;1.90;;
16640;SDS011;8434;47.990;7.880;2023-12-04T15:35:58;2.63;;;1.30;;
16640;SDS011;8434;47.990;7.880;2023-12-04T15:38:44;2.47;;;1.40;;
16640;SDS011;8434;47.990;7.880;2023-12-04T15:41:30;2.30;;;1.37;;
16640;SDS011;8434;47.990;7.880;2023-12-04T15:44:15;1.57;;;1.03;;
16640;SDS011;8434;47.990;7.880;2023-12-04T15:46:59;1.43;;;0.90;;
16640;SDS011;8434;47.990;7.880;2023-12-04T15:49:45;3.27;;;1.20;;
16640;SDS011;8434;47.990;7.880;2023-12-04T15:52:29;2.27;;;1.00;;
16640;SDS011;8434;47.990;7.880;2023-12-04T15:55:15;1.53;;;1.10;;
16640;SDS011;8434;47.990;7.880;2023-12-04T15:58:00;2.50;;;1.17;;
16640;SDS011;8434;47.990;7.880;2023-12-04T16:00:46;3.60;;;2.00;;
16640;SDS011;8434;47.990;7.880;2023-12-04T16:03:35;3.67;;;1.67;;
16640;SDS011;8434;47.990;7.880;2023-12-04T16:06:20;1.80;;;1.30;;
16640;SDS011;8434;47.990;7.880;2023-12-04T16:09:06;2.00;;;0.73;;
16640;SDS011;8434;47.990;7.880;2023-12-04T16:11:57;1.70;;;1.00;;
16640;SDS011;8434;47.990;7.880;2023-12-04T16:14:44;0.93;;;0.60;;
16640;SDS011;8434;47.990;7.880;2023-12-04T16:17:29;1.37;;;0.80;;
16640;SDS011;8434;47.990;7.880;2023-12-04T16:20:15;1.00;;;0.80;;
16640;SDS011;8434;47.990;7.880;2023-12-04T16:23:00;1.50;;;1.10;;
16640;SDS011;8434;47.990;7.880;2023-12-04T16:25:46;1.10;;;0.50;;
16640;SDS011;8434;47.990;7.880;2023-12-04T16:28:32;1.17;;;0.70;;
16640;SDS011;8434;47.990;7.880;2023-12-04T16:31:19;0.87;;;0.67;;
16640;SDS011;8434;47.990;7.880;2023-12-04T16:34:04;0.80;;;0.67;;
16640;SDS011;8434;47.990;7.880;2023-12-04T16:36:50;1.30;;;1.20;;
16640;SDS011;8434;47.990;7.880;2023-12-04T16:39:35;1.33;;;0.97;;
16640;SDS011;8434;47.990;7.880;2023-12-04T16:42:21;1.07;;;0.70;;
16640;SDS011;8434;47.990;7.880;2023-12-04T16:45:06;1.70;;;0.80;;
16640;SDS011;8434;47.990;7.880;2023-12-04T16:47:53;2.23;;;1.70;;
16640;SDS011;8434;47.990;7.880;2023-12-04T16:50:39;2.00;;;1.50;;
16640;SDS011;8434;47.990;7.880;2023-12-04T16:53:24;1.73;;;1.13;;
16640;SDS011;8434;47.990;7.880;2023-12-04T16:56:13;2.63;;;2.37;;
16640;SDS011;8434;47.990;7.880;2023-12-04T16:58:58;2.50;;;1.80;;